EDT,Max TemperatureF,Mean TemperatureF,Min TemperatureF,Max Dew PointF,MeanDew PointF,Min DewpointF,Max Humidity, Mean Humidity, Min Humidity, Max Sea Level PressureIn, Mean Sea Level PressureIn, Min Sea Level PressureIn, Max VisibilityMiles, Mean VisibilityMiles, Min VisibilityMiles, Max Wind SpeedMPH, Mean Wind SpeedMPH, Max Gust SpeedMPH,PrecipitationIn, CloudCover, Events, WindDirDegrees
2012-9-1,79,68,57,63,59,55,100,89,52,30.12,30.00,29.88,10,5,1,7,1,,0.00,3,,176
2012-9-2,72,64,57,59,57,55,100,85,61,30.19,30.14,30.10,10,10,4,8,1,,0.09,6,Rain,157
2012-9-3,77,67,57,59,57,55,96,80,48,30.24,30.19,30.14,10,10,8,10,1,,0.01,5,,179
2012-9-4,64,58,53,64,60,52,100,97,93,30.14,30.06,29.89,10,4,0,8,2,,0.26,7,Fog-Rain,179
2012-9-5,79,70,62,65,63,61,100,87,62,29.88,29.78,29.69,10,7,2,10,1,,0.78,8,Rain,358
2012-9-6,80,67,57,67,61,57,100,90,62,29.91,29.87,29.82,10,6,0,7,1,,0.01,3,Fog-Rain,176
2012-9-7,84,72,57,65,61,56,100,77,40,29.92,29.89,29.85,10,9,3,9,2,,0.01,0,Rain,246
2012-9-8,82,69,57,70,64,58,100,90,62,29.88,29.76,29.58,10,7,1,14,3,30,0.27,7,Rain,178
2012-9-9,71,60,48,60,54,48,97,80,49,29.88,29.80,29.67,10,10,3,8,2,,0.03,3,Rain,273
2012-9-10,66,52,41,49,45,41,100,89,52,30.04,29.91,29.87,10,4,0,10,2,18,0.00,3,Fog,277
2012-9-11,73,54,35,54,40,35,100,89,35,30.26,30.11,30.04,10,4,0,5,1,,0.00,1,Fog-Rain,269
2012-9-12,79,58,39,58,45,39,100,89,42,30.36,30.31,30.26,10,4,0,8,0,,0.00,1,Fog,225
2012-9-13,82,62,42,63,50,43,100,90,39,30.35,30.31,30.24,10,4,0,6,0,,0.00,2,Fog-Rain,187
2012-9-14,82,65,48,65,54,47,100,90,45,30.25,30.19,30.03,10,5,0,6,0,,0.01,1,Fog,116
2012-9-15,70,62,53,58,52,42,100,84,42,30.04,30.00,29.97,10,5,0,17,2,26,0.02,3,Fog-Rain,280
2012-9-16,66,55,39,43,37,33,93,53,33,30.06,30.02,29.97,10,10,10,12,5,24,0.00,0,,279
2012-9-17,75,52,32,57,40,32,100,89,40,30.12,30.07,30.01,10,5,0,6,0,,0.00,2,Fog,228
2012-9-18,68,57,46,66,55,46,100,94,68,30.05,29.93,29.63,10,4,0,15,3,30,0.80,6,Fog-Rain,150
2012-9-19,69,53,37,67,47,32,100,83,31,30.25,29.99,29.64,10,6,0,14,6,25,1.25,4,Fog-Rain,249
2012-9-20,64,46,30,48,38,31,100,89,41,30.32,30.25,30.18,10,4,0,5,0,,0.00,1,Fog-Rain,0
2012-9-21,64,50,37,51,42,37,100,94,60,30.21,30.17,30.09,10,4,0,8,0,,0.00,5,Fog,126
2012-9-22,71,56,42,60,52,43,100,93,63,30.09,29.97,29.82,10,6,0,7,1,,0.02,7,Fog-Rain,148
2012-9-23,68,58,44,59,50,38,100,77,35,30.07,29.90,29.78,10,8,3,13,3,17,0.17,3,Rain,267
2012-9-24,64,48,33,47,38,34,100,91,43,30.14,30.08,30.04,10,4,0,8,0,20,0.00,2,Fog-Rain,233
2012-9-25,69,49,30,46,38,30,100,88,37,30.12,30.09,30.07,10,5,0,12,1,18,0.00,1,Fog-Rain,195
2012-9-26,64,54,45,59,54,44,100,91,77,30.09,30.03,29.98,10,9,2,6,1,,0.01,6,Rain,248
2012-9-27,64,50,35,57,41,35,100,83,40,30.28,30.19,29.99,10,7,0,7,2,,0.00,2,Fog-Rain,313
2012-9-28,50,42,33,49,42,33,100,96,87,30.30,30.22,30.10,10,5,0,4,0,,0.57,7,Fog-Rain,320
2012-9-29,55,52,48,52,50,47,100,93,80,30.09,29.97,29.92,10,7,2,7,4,,0.09,8,Rain,11
2012-9-30,57,54,50,56,53,49,100,97,93,29.93,29.82,29.64,10,5,2,6,2,,0.35,8,Rain,333